createdAt,value
2018-07-09T00:02:13.871Z,11.15
2018-07-09T00:08:08.897Z,9.77
2018-07-09T00:14:03.861Z,10.37
2018-07-09T00:19:58.854Z,10.1
2018-07-09T00:25:53.868Z,9.8
2018-07-09T00:31:48.909Z,11.07
2018-07-09T00:37:43.908Z,11.48
2018-07-09T00:43:38.936Z,11.27
2018-07-09T00:49:33.941Z,10.88
2018-07-09T00:55:28.895Z,20.84
2018-07-09T01:01:23.969Z,24.53
2018-07-09T01:07:18.911Z,17.87
2018-07-09T01:13:13.911Z,16.47
2018-07-09T01:19:08.944Z,14.25
2018-07-09T01:25:03.923Z,13.59
2018-07-09T01:30:58.915Z,12.42
2018-07-09T01:36:53.924Z,13.21
2018-07-09T01:42:48.897Z,13.41
2018-07-09T01:48:43.919Z,12.78
2018-07-09T01:54:38.920Z,12.63
2018-07-09T02:00:33.917Z,12.77
2018-07-09T02:06:28.948Z,12.72
2018-07-09T02:12:23.941Z,11.56
2018-07-09T02:18:18.971Z,12.54
2018-07-09T02:24:13.954Z,12.24
2018-07-09T02:30:08.947Z,12.47
2018-07-09T02:36:04.006Z,12.43
2018-07-09T02:41:58.984Z,12.95
2018-07-09T02:47:53.951Z,13.12
2018-07-09T02:53:48.951Z,12.46
2018-07-09T02:59:43.974Z,12.13
2018-07-09T03:05:38.968Z,12.57
2018-07-09T03:11:34.004Z,11.09
2018-07-09T03:17:29.042Z,12.17
2018-07-09T03:23:24.012Z,10.99
2018-07-09T03:29:18.975Z,11.13
2018-07-09T03:35:13.981Z,11.21
2018-07-09T03:41:08.988Z,10.83
2018-07-09T03:47:03.985Z,12.17
2018-07-09T03:52:59.015Z,11.95
2018-07-09T03:58:53.986Z,11.27
2018-07-09T04:04:49.034Z,3.5
2018-07-09T04:10:44.064Z,11.19
2018-07-09T04:16:39.028Z,10.91
2018-07-09T04:22:34.027Z,11.47
2018-07-09T04:28:29.085Z,11.65
2018-07-09T04:34:24.043Z,13.07
2018-07-09T04:40:19.022Z,11.75
2018-07-09T04:46:14.041Z,11.78
2018-07-09T04:52:09.081Z,12.87
2018-07-09T04:58:04.032Z,12.76
2018-07-09T05:03:59.093Z,11.82
2018-07-09T05:09:54.045Z,11.79
2018-07-09T05:15:49.068Z,13.15
2018-07-09T05:21:44.061Z,13.73
2018-07-09T05:27:39.066Z,11.56
2018-07-09T05:33:34.058Z,11.74
2018-07-09T05:39:29.062Z,11.55
2018-07-09T05:45:24.137Z,10.58
2018-07-09T05:51:19.069Z,9.2
2018-07-09T05:57:14.068Z,5.55
2018-07-09T06:03:09.081Z,5.04
2018-07-09T06:09:04.146Z,5
2018-07-09T06:14:59.188Z,4.51
2018-07-09T06:20:54.067Z,4.18
2018-07-09T06:26:49.079Z,4.06
2018-07-09T06:32:44.102Z,3.72
2018-07-09T06:38:39.103Z,3.63
2018-07-09T06:44:34.098Z,3.99
2018-07-09T06:50:29.090Z,3.7
2018-07-09T06:56:24.090Z,4.15
2018-07-09T07:02:19.129Z,4.24
2018-07-09T07:08:14.124Z,4.23
2018-07-09T07:14:09.221Z,4.39
2018-07-09T07:20:04.148Z,3.91
2018-07-09T07:25:59.165Z,3.25
2018-07-09T07:31:54.144Z,5.57
2018-07-09T07:37:49.168Z,2.93
2018-07-09T07:43:44.127Z,2.69
2018-07-09T07:49:39.125Z,2.42
2018-07-09T07:55:34.144Z,2.51
2018-07-09T08:01:29.140Z,2.29
2018-07-09T08:07:24.151Z,2.9
2018-07-09T08:13:32.359Z,2.31
2018-07-09T08:19:14.149Z,2.21
2018-07-09T08:25:09.282Z,1.99
2018-07-09T08:31:04.201Z,5.21
2018-07-09T08:36:59.165Z,2.36
2018-07-09T08:42:54.183Z,2.08
2018-07-09T08:48:49.151Z,2.17
2018-07-09T08:54:44.169Z,2.13
2018-07-09T09:00:39.198Z,2.36
2018-07-09T09:06:34.176Z,2.04
2018-07-09T09:12:29.250Z,2.02
2018-07-09T09:18:24.183Z,2.06
2018-07-09T09:24:19.192Z,2.14
2018-07-09T09:30:14.177Z,2.36
2018-07-09T09:36:09.197Z,1.58
2018-07-09T09:42:04.179Z,1.59
2018-07-09T09:47:59.255Z,2.48
2018-07-09T09:53:54.188Z,1.68
2018-07-09T09:59:49.248Z,1.6
2018-07-09T10:05:44.224Z,1.93
2018-07-09T10:11:39.221Z,2.11
2018-07-09T10:17:34.323Z,1.55
2018-07-09T10:23:29.265Z,1.71
2018-07-09T10:29:24.231Z,1.78
2018-07-09T10:35:19.282Z,1.54
2018-07-09T10:41:14.250Z,1.64
2018-07-09T10:47:09.279Z,1.5
2018-07-09T10:53:04.231Z,1.33
2018-07-09T10:58:59.293Z,1.58
2018-07-09T11:04:54.253Z,1.76
2018-07-09T11:10:49.247Z,1.7
2018-07-09T11:16:44.251Z,1.49
2018-07-09T11:22:39.327Z,1.68
2018-07-09T11:28:34.265Z,1.45
2018-07-09T11:34:29.292Z,1.71
2018-07-09T11:40:24.272Z,1.41
2018-07-09T11:46:19.268Z,1.36
2018-07-09T11:52:14.337Z,1.47
2018-07-09T11:58:09.290Z,1.29
2018-07-09T12:04:04.343Z,1.69
2018-07-09T12:09:59.365Z,1.35
2018-07-09T12:15:54.301Z,1.21
2018-07-09T12:21:49.326Z,1.13
2018-07-09T12:27:44.330Z,1.35
2018-07-09T12:33:39.298Z,1.22
2018-07-09T12:39:34.385Z,1.26
2018-07-09T12:45:29.295Z,1.05
2018-07-09T12:51:24.349Z,0.92
2018-07-09T12:57:19.309Z,0.91
2018-07-09T13:03:14.320Z,0.88
2018-07-09T13:09:09.319Z,0.97
2018-07-09T13:15:04.446Z,1.13
2018-07-09T13:20:59.310Z,1.12
2018-07-09T13:26:54.330Z,1.04
2018-07-09T13:32:49.364Z,1.1
2018-07-09T13:38:44.327Z,1.11
2018-07-09T13:44:39.329Z,1.21
2018-07-09T13:50:34.338Z,1.47
2018-07-09T13:56:29.499Z,1.19
2018-07-09T14:02:24.334Z,0.97
2018-07-09T14:08:19.349Z,1.3
2018-07-09T14:14:14.348Z,1.46
2018-07-09T14:20:09.451Z,1.51
2018-07-09T14:26:04.368Z,1.55
2018-07-09T14:31:59.362Z,1.54
2018-07-09T14:37:54.377Z,1.71
2018-07-09T14:43:49.379Z,1.94
2018-07-09T14:49:44.392Z,1.72
2018-07-09T14:55:39.369Z,2.14
2018-07-09T15:01:34.413Z,3.11
2018-07-09T15:07:29.388Z,1.74
2018-07-09T15:13:24.402Z,2.44
2018-07-09T15:19:19.403Z,1.68
2018-07-09T15:25:14.804Z,1.61
2018-07-09T15:31:09.418Z,1.77
2018-07-09T15:37:04.395Z,2.7
2018-07-09T15:42:59.420Z,1.99
2018-07-09T15:48:54.442Z,2.27
2018-07-09T15:54:49.403Z,2.36
2018-07-09T16:00:44.437Z,2.74
2018-07-09T16:06:39.437Z,2.15
2018-07-09T16:12:34.457Z,2.14
2018-07-09T16:18:29.439Z,2.89
2018-07-09T16:24:24.415Z,2.11
2018-07-09T16:30:19.445Z,1.78
2018-07-09T16:36:14.711Z,1.76
2018-07-09T16:42:09.497Z,1.8
2018-07-09T16:48:04.541Z,2.05
2018-07-09T16:53:59.438Z,1.91
2018-07-09T16:59:54.446Z,1.74
2018-07-09T17:05:49.511Z,1.84
2018-07-09T17:11:44.470Z,2.22
2018-07-09T17:17:39.484Z,1.9
2018-07-09T17:23:34.454Z,2.02
2018-07-09T17:29:29.546Z,2.11
2018-07-09T17:35:24.533Z,1.82
2018-07-09T17:41:19.504Z,1.88
2018-07-09T17:47:14.547Z,1.41
2018-07-09T17:53:09.558Z,2.15
2018-07-09T17:59:04.502Z,2.24
2018-07-09T18:04:59.648Z,2.25
2018-07-09T18:10:54.500Z,1.97
2018-07-09T18:16:49.857Z,2.1
2018-07-09T18:22:44.711Z,1.82
2018-07-09T18:28:39.612Z,1.95
2018-07-09T18:34:34.551Z,1.86
2018-07-09T18:40:29.515Z,2.15
2018-07-09T18:46:24.725Z,2.43
2018-07-09T18:52:19.578Z,2.53
2018-07-09T18:58:14.548Z,2.56
2018-07-09T19:04:09.557Z,2.62
2018-07-09T19:10:04.676Z,2.42
2018-07-09T19:15:59.573Z,2.63
2018-07-09T19:21:54.534Z,3.15
2018-07-09T19:27:49.528Z,2.61
2018-07-09T19:33:44.599Z,2.48
2018-07-09T19:39:39.604Z,2.76
2018-07-09T19:45:34.605Z,2.15
2018-07-09T19:51:29.613Z,2.79
2018-07-09T19:57:24.562Z,2.49
2018-07-09T20:03:19.586Z,2.76
2018-07-09T20:09:14.603Z,2.6
2018-07-09T20:15:09.721Z,2.85
2018-07-09T20:21:04.577Z,2.72
2018-07-09T20:26:59.615Z,3.22
2018-07-09T20:32:54.574Z,4.63
2018-07-09T20:38:49.579Z,3.23
2018-07-09T20:44:44.583Z,3.61
2018-07-09T20:50:39.631Z,3.44
2018-07-09T20:56:34.602Z,4.02
2018-07-09T21:02:29.610Z,3.4
2018-07-09T21:08:24.593Z,3.22
2018-07-09T21:14:19.600Z,3.58
2018-07-09T21:20:14.612Z,3.67
2018-07-09T21:26:09.624Z,4.24
2018-07-09T21:32:04.658Z,4.25
2018-07-09T21:37:59.747Z,4.12
2018-07-09T21:43:54.727Z,3.88
2018-07-09T21:49:49.661Z,4.13
2018-07-09T21:55:44.658Z,4.32
2018-07-09T22:01:39.672Z,4.48
2018-07-09T22:07:34.692Z,4.77
2018-07-09T22:13:29.691Z,4.84
2018-07-09T22:19:24.656Z,4.98
2018-07-09T22:25:19.652Z,4.58
2018-07-09T22:31:14.652Z,4.55
2018-07-09T22:37:09.673Z,5.04
2018-07-09T22:43:04.674Z,4.32
2018-07-09T22:48:59.717Z,5.13
2018-07-09T22:54:54.726Z,5.56
2018-07-09T23:00:49.733Z,5.67
2018-07-09T23:06:44.722Z,5.5
2018-07-09T23:12:39.694Z,4.78
2018-07-09T23:18:34.724Z,4.84
2018-07-09T23:24:29.712Z,5.69
2018-07-09T23:30:24.678Z,5.64
2018-07-09T23:36:19.695Z,5.05
2018-07-09T23:42:14.717Z,5.1
2018-07-09T23:48:09.691Z,5.02
2018-07-09T23:54:04.721Z,5.34
2018-07-09T23:59:59.700Z,5.39
